Archival Weather

Yakutsk

Yakutsk, Russia (UEEE)

Report from: Thursday, January 26, 2023 11:00 AM JST
Current time: Tuesday, March 5, 2024 8:46 AM JST

Current weather – Weather history – Daily summaries
Weather forecast

Present weatherFog
Temperature-47.0°C (-52.6°F)
Dew point-52.0°C (-61.6°F)
Winds Calm
Visibility1476.4 ft. (450 m)
Clouds Ceiling: Vertical visibility 300 ft. (91 m)
Altimeter30.42 in.Hg (1030 mB)
Precip. events QB 2:30 AM
QF 1:43 PM
Relative humidity56 %
Density altitude-9,092 ft. (-2,771 m)
Remarks No significant changes expected in the next two hours
Flight conditions Low Instrument Meteorological Conditions
Raw dataUEEE 260200Z 00000MPS 0450 0250SW R23L/0500N FG VV003 M47/M52 Q1030 R23L/490150 NOSIG RMK QBB090 QFE763
An error has occurred. This application may no longer respond until reloaded. Reload 🗙